Main page
METAR-TAF:

METAR-TAF

Airports :

Marabá Airport

Marabá, Pará, Brazil

latitude: 05-21S, longitude: 049-09W, elevation: 95 m

Current weather observation

The report was made 47 minutes ago, at 07:00 UTC
Wind 4 kt from the North/Northwest
Temperature 25°C
Humidity 100%
Pressure 1012 hPa
Visibility 10 km or more
Scattered clouds at a height of 500 ft
Few clouds at a height of 2500 ft, Cumulonimbus.
thunderstorm in vicinity

METAR: SBMA 200700Z 34004KT 9999 VCTS SCT005 FEW025CB 25/25 Q1012

Time: 04:47 (07:47 UTC)

Forecast

The report was made 3 hours and 47 minutes ago, at 04:00 UTC
Forecast valid from 20 at 06 UTC to 20 at 18 UTC
Wind 5 kt from the North
Visibility 10 km or more
no clouds below 1500 m and no cumulonimbus
Becoming
from 20 at 10 UTC to 20 at 11 UTC
Visibility 10 km or more
Scattered clouds at a height of 1500 ft

TAF: SBMA 200400Z 2006/2018 36005KT CAVOK TN25/2007Z TX32/2017Z BECMG 2010/2011 9999 SCT015 RMK PEM

Weather observations and forecasts of more than 4000 airports (METAR and TAF reports).

The available stations are represented by yellow and red dots on the map.

Hover mouse over dot to see the name of the station.

Then click to see weather observations and forecasts.

To change the map : click on the green buttons with a black cross to zoom in, on the green button with a dash to zoom out, or on the green arrows for adjacent maps.


METAR-TAF: